createdAt,value
2023-02-12T00:01:12.597Z,103557.91
2023-02-12T00:03:40.086Z,103566.53
2023-02-12T00:06:07.865Z,103568.28
2023-02-12T00:08:34.983Z,103564.84
2023-02-12T00:11:09.720Z,103563.97
2023-02-12T00:13:36.678Z,103563.09
2023-02-12T00:16:19.470Z,103560.53
2023-02-12T00:18:47.115Z,103558.81
2023-02-12T00:21:14.846Z,103566.56
2023-02-12T00:23:41.745Z,103567.44
2023-02-12T00:26:10.676Z,103559.69
2023-02-12T00:28:38.240Z,103557.13
2023-02-12T00:31:13.759Z,103566.66
2023-02-12T00:33:41.224Z,103570.06
2023-02-12T00:36:09.752Z,103570.91
2023-02-12T00:38:36.514Z,103570.06
2023-02-12T00:41:03.055Z,103563.19
2023-02-12T00:43:29.548Z,103567.53
2023-02-12T00:45:56.619Z,103558.06
2023-02-12T00:48:23.370Z,103563.22
2023-02-12T00:50:50.399Z,103558.03
2023-02-12T00:53:17.748Z,103558.91
2023-02-12T00:55:44.381Z,103560.63
2023-02-12T00:58:11.282Z,103560.59
2023-02-12T01:00:37.938Z,103564.06
2023-02-12T01:03:09.355Z,103559.69
2023-02-12T01:05:37.257Z,103559.69
2023-02-12T01:08:05.207Z,103557.13
2023-02-12T01:10:31.843Z,103558.88
2023-02-12T01:12:58.434Z,103561.47
2023-02-12T01:15:24.977Z,103558.03
2023-02-12T01:17:53.389Z,103552.00
2023-02-12T01:20:21.972Z,103561.47
2023-02-12T01:22:48.778Z,103560.63
2023-02-12T01:25:15.324Z,103552.84
2023-02-12T01:27:41.854Z,103554.53
2023-02-12T01:30:12.555Z,103554.53
2023-02-12T01:32:39.171Z,103551.94
2023-02-12T01:35:06.690Z,103554.53
2023-02-12T01:37:35.775Z,103548.50
2023-02-12T01:40:02.322Z,103543.31
2023-02-12T01:42:28.895Z,103545.03
2023-02-12T01:45:14.308Z,103537.28
2023-02-12T01:47:42.396Z,103547.63
2023-02-12T01:50:12.953Z,103551.06
2023-02-12T01:52:43.256Z,103547.63
2023-02-12T01:55:11.486Z,103546.75
2023-02-12T01:57:42.747Z,103554.50
2023-02-12T02:00:16.798Z,103551.03
2023-02-12T02:02:51.441Z,103545.00
2023-02-12T02:05:24.860Z,103544.13
2023-02-12T02:07:53.192Z,103539.81
2023-02-12T02:10:19.805Z,103534.59
2023-02-12T02:13:04.969Z,103539.78
2023-02-12T02:15:32.554Z,103534.59
2023-02-12T02:17:59.174Z,103530.28
2023-02-12T02:20:48.779Z,103523.38
2023-02-12T02:23:36.517Z,103530.31
2023-02-12T02:26:16.763Z,103521.66
2023-02-12T02:28:57.833Z,103532.00
2023-02-12T02:31:33.364Z,103531.13
2023-02-12T02:34:33.845Z,103521.63
2023-02-12T02:37:25.538Z,103523.38
2023-02-12T02:39:57.837Z,103516.47
2023-02-12T02:42:41.407Z,103518.19
2023-02-12T02:45:21.712Z,103516.47
2023-02-12T02:48:14.218Z,103519.94
2023-02-12T02:50:46.883Z,103519.94
2023-02-12T02:53:27.005Z,103515.63
2023-02-12T02:55:57.284Z,103518.19
2023-02-12T02:58:29.429Z,103522.56
2023-02-12T03:01:04.760Z,103515.63
2023-02-12T03:03:45.653Z,103517.34
2023-02-12T03:06:40.127Z,103523.38
2023-02-12T03:09:16.397Z,103529.41
2023-02-12T03:11:43.289Z,103525.94
2023-02-12T03:14:29.680Z,103522.50
2023-02-12T03:17:18.504Z,103516.47
2023-02-12T03:19:55.120Z,103528.53
2023-02-12T03:22:26.870Z,103519.91
2023-02-12T03:25:04.735Z,103519.91
2023-02-12T03:27:33.276Z,103525.94
2023-02-12T03:30:00.883Z,103519.84
2023-02-12T03:32:33.934Z,103525.91
2023-02-12T03:35:38.506Z,103524.19
2023-02-12T03:38:30.932Z,103525.94
2023-02-12T03:41:20.377Z,103525.94
2023-02-12T03:43:52.594Z,103537.13
2023-02-12T03:46:41.704Z,103533.63
2023-02-12T03:49:21.389Z,103533.63
2023-02-12T03:51:48.386Z,103524.13
2023-02-12T03:54:18.008Z,103532.75
2023-02-12T03:57:06.841Z,103525.84
2023-02-12T03:59:36.902Z,103530.16
2023-02-12T04:02:04.081Z,103535.31
2023-02-12T04:04:31.458Z,103534.44
2023-02-12T04:06:58.584Z,103531.00
2023-02-12T04:09:27.867Z,103534.47
2023-02-12T04:12:25.260Z,103542.22
2023-02-12T04:15:00.195Z,103538.75
2023-02-12T04:17:40.660Z,103543.09
2023-02-12T04:20:44.345Z,103541.34
2023-02-12T04:23:27.682Z,103554.22
2023-02-12T04:26:39.217Z,103544.75
2023-02-12T04:29:18.834Z,103554.22
2023-02-12T04:32:22.808Z,103557.63
2023-02-12T04:34:59.322Z,103556.78
2023-02-12T04:37:25.740Z,103561.16
2023-02-12T04:39:53.505Z,103561.97
2023-02-12T04:42:20.349Z,103556.78
2023-02-12T04:44:46.924Z,103563.69
2023-02-12T04:47:14.836Z,103568.81
2023-02-12T04:49:41.717Z,103573.13
2023-02-12T04:52:09.773Z,103570.56
2023-02-12T04:54:36.513Z,103574.00
2023-02-12T04:57:03.958Z,103574.88
2023-02-12T04:59:30.455Z,103573.16
2023-02-12T05:01:56.949Z,103574.00
2023-02-12T05:04:23.448Z,103576.59
2023-02-12T05:06:49.956Z,103573.16
2023-02-12T05:09:19.019Z,103574.00
2023-02-12T05:11:46.198Z,103580.03
2023-02-12T05:14:13.010Z,103575.69
2023-02-12T05:16:39.753Z,103570.53
2023-02-12T05:19:09.598Z,103580.03
2023-02-12T05:21:37.112Z,103583.47
2023-02-12T05:24:04.004Z,103579.13
2023-02-12T05:26:30.510Z,103582.59
2023-02-12T05:28:57.045Z,103587.78
2023-02-12T05:31:25.957Z,103586.03
2023-02-12T05:33:52.872Z,103586.94
2023-02-12T05:36:24.455Z,103586.94
2023-02-12T05:38:53.080Z,103593.84
2023-02-12T05:41:22.078Z,103592.97
2023-02-12T05:43:49.953Z,103588.66
2023-02-12T05:46:18.240Z,103592.09
2023-02-12T05:48:44.736Z,103593.81
2023-02-12T05:51:17.577Z,103595.53
2023-02-12T05:53:44.435Z,103599.00
2023-02-12T05:56:11.067Z,103591.22
2023-02-12T05:58:38.037Z,103601.59
2023-02-12T06:01:13.972Z,103594.66
2023-02-12T06:03:40.699Z,103597.25
2023-02-12T06:06:12.078Z,103592.09
2023-02-12T06:08:39.160Z,103597.25
2023-02-12T06:11:08.693Z,103592.06
2023-02-12T06:13:35.266Z,103595.53
2023-02-12T06:16:02.256Z,103589.47
2023-02-12T06:18:29.169Z,103590.34
2023-02-12T06:20:58.060Z,103589.50
2023-02-12T06:23:25.556Z,103588.63
2023-02-12T06:25:59.050Z,103594.66
2023-02-12T06:28:25.651Z,103596.38
2023-02-12T06:30:52.550Z,103592.94
2023-02-12T06:33:19.188Z,103599.84
2023-02-12T06:35:46.061Z,103600.72
2023-02-12T06:38:19.686Z,103593.81
2023-02-12T06:40:46.244Z,103599.81
2023-02-12T06:43:12.758Z,103605.84
2023-02-12T06:45:39.257Z,103609.22
2023-02-12T06:48:06.533Z,103600.59
2023-02-12T06:50:33.440Z,103604.91
2023-02-12T06:53:05.331Z,103607.50
2023-02-12T06:55:33.574Z,103601.47
2023-02-12T06:58:00.109Z,103611.81
2023-02-12T07:00:26.787Z,103611.81
2023-02-12T07:02:58.037Z,103615.25
2023-02-12T07:05:25.053Z,103617.91
2023-02-12T07:07:52.182Z,103620.50
2023-02-12T07:10:21.255Z,103622.25
2023-02-12T07:12:48.090Z,103617.06
2023-02-12T07:15:14.818Z,103629.16
2023-02-12T07:17:41.458Z,103623.97
2023-02-12T07:20:08.529Z,103623.97
2023-02-12T07:22:37.973Z,103630.03
2023-02-12T07:25:04.856Z,103622.25
2023-02-12T07:27:31.379Z,103624.88
2023-02-12T07:29:58.111Z,103632.69
2023-02-12T07:32:24.796Z,103638.75
2023-02-12T07:34:51.395Z,103633.56
2023-02-12T07:37:22.881Z,103633.56
2023-02-12T07:39:50.080Z,103634.44
2023-02-12T07:42:16.653Z,103635.09
2023-02-12T07:44:45.817Z,103635.09
2023-02-12T07:47:12.462Z,103636.00
2023-02-12T07:49:38.983Z,103634.34
2023-02-12T07:52:05.496Z,103635.28
2023-02-12T07:54:32.007Z,103641.38
2023-02-12T07:56:58.560Z,103636.28
2023-02-12T07:59:25.163Z,103638.88
2023-02-12T08:01:53.019Z,103645.00
2023-02-12T08:04:22.301Z,103643.28
2023-02-12T08:06:51.623Z,103647.59
2023-02-12T08:09:21.582Z,103658.88
2023-02-12T08:11:48.550Z,103659.78
2023-02-12T08:14:17.317Z,103657.25
2023-02-12T08:16:45.540Z,103659.94
2023-02-12T08:19:20.498Z,103662.59
2023-02-12T08:21:53.055Z,103660.09
2023-02-12T08:24:19.865Z,103663.59
2023-02-12T08:26:46.479Z,103667.09
2023-02-12T08:29:15.750Z,103661.13
2023-02-12T08:31:45.388Z,103674.13
2023-02-12T08:34:23.273Z,103682.78
2023-02-12T08:36:51.538Z,103677.63
2023-02-12T08:39:18.573Z,103681.13
2023-02-12T08:41:46.201Z,103680.28
2023-02-12T08:44:13.407Z,103684.56
2023-02-12T08:46:46.779Z,103684.59
2023-02-12T08:49:25.215Z,103675.97
2023-02-12T08:51:54.146Z,103670.88
2023-02-12T08:54:23.967Z,103676.16
2023-02-12T08:56:51.130Z,103678.78
2023-02-12T08:59:18.230Z,103677.94
2023-02-12T09:01:45.355Z,103685.75
2023-02-12T09:04:18.202Z,103678.94
2023-02-12T09:06:46.609Z,103684.13
2023-02-12T09:09:13.625Z,103685.09
2023-02-12T09:11:40.595Z,103686.84
2023-02-12T09:14:10.645Z,103680.00
2023-02-12T09:16:38.087Z,103685.19
2023-02-12T09:19:04.641Z,103680.88
2023-02-12T09:21:31.464Z,103692.09
2023-02-12T09:23:58.039Z,103696.41
2023-02-12T09:26:28.144Z,103694.78
2023-02-12T09:28:55.432Z,103692.22
2023-02-12T09:31:26.657Z,103690.56
2023-02-12T09:33:55.661Z,103693.16
2023-02-12T09:36:22.558Z,103688.09
2023-02-12T09:38:49.820Z,103688.97
2023-02-12T09:41:38.199Z,103689.03
2023-02-12T09:44:36.240Z,103688.25
2023-02-12T09:47:05.768Z,103688.25
2023-02-12T09:50:23.826Z,103678.81
2023-02-12T09:52:51.504Z,103689.22
2023-02-12T09:55:19.537Z,103681.44
2023-02-12T09:57:46.688Z,103683.22
2023-02-12T10:00:22.798Z,103689.28
2023-02-12T10:02:53.819Z,103692.81
2023-02-12T10:05:25.442Z,103685.81
2023-02-12T10:08:06.532Z,103689.28
2023-02-12T10:10:45.074Z,103690.22
2023-02-12T10:13:26.768Z,103695.41
2023-02-12T10:16:06.549Z,103692.00
2023-02-12T10:18:45.135Z,103702.41
2023-02-12T10:21:43.946Z,103701.41
2023-02-12T10:24:31.686Z,103689.34
2023-02-12T10:27:01.978Z,103691.97
2023-02-12T10:29:39.801Z,103692.78
2023-02-12T10:39:14.624Z,103689.44
2023-02-12T10:41:53.184Z,103691.22
2023-02-12T10:44:19.858Z,103693.03
2023-02-12T10:46:46.429Z,103689.53
2023-02-12T10:49:17.105Z,103687.00
2023-02-12T10:52:12.913Z,103694.78
2023-02-12T10:54:43.529Z,103686.13
2023-02-12T10:57:28.020Z,103685.25
2023-02-12T10:59:58.064Z,103678.34
2023-02-12T11:02:24.647Z,103673.22
2023-02-12T11:04:53.158Z,103679.25
2023-02-12T11:07:21.253Z,103672.38
2023-02-12T11:09:50.328Z,103669.81
2023-02-12T11:12:25.863Z,103676.75
2023-02-12T11:14:55.376Z,103676.75
2023-02-12T11:17:38.770Z,103673.34
2023-02-12T11:20:28.383Z,103671.69
2023-02-12T11:23:04.327Z,103669.16
2023-02-12T11:25:34.059Z,103664.00
2023-02-12T11:28:14.305Z,103663.19
2023-02-12T11:30:59.926Z,103658.88
2023-02-12T11:33:29.980Z,103660.63
2023-02-12T11:36:06.847Z,103656.34
2023-02-12T11:38:37.778Z,103646.00
2023-02-12T11:41:18.697Z,103652.06
2023-02-12T11:43:45.562Z,103652.94
2023-02-12T11:46:20.475Z,103654.66
2023-02-12T11:48:47.731Z,103653.78
2023-02-12T11:51:40.668Z,103649.41
2023-02-12T11:54:07.226Z,103650.22
2023-02-12T11:56:43.522Z,103651.16
2023-02-12T11:59:31.400Z,103634.66
2023-02-12T12:02:03.918Z,103643.31
2023-02-12T12:04:34.086Z,103640.75
2023-02-12T12:07:16.787Z,103643.31
2023-02-12T12:09:49.674Z,103641.56
2023-02-12T12:12:23.116Z,103634.63
2023-02-12T12:15:12.993Z,103638.94
2023-02-12T12:18:15.188Z,103626.81
2023-02-12T12:20:49.205Z,103625.13
2023-02-12T12:23:40.837Z,103625.13
2023-02-12T12:26:13.095Z,103620.75
2023-02-12T12:28:51.370Z,103627.63
2023-02-12T12:31:24.590Z,103614.66
2023-02-12T12:34:09.328Z,103607.72
2023-02-12T12:37:03.459Z,103606.00
2023-02-12T12:39:42.442Z,103600.81
2023-02-12T12:42:30.388Z,103610.34
2023-02-12T12:45:15.264Z,103599.97
2023-02-12T12:48:15.396Z,103596.53
2023-02-12T12:51:03.546Z,103586.16
2023-02-12T12:53:57.515Z,103590.53
2023-02-12T12:56:39.157Z,103583.56
2023-02-12T12:59:28.452Z,103586.16
2023-02-12T13:02:13.842Z,103584.44
2023-02-12T13:04:46.522Z,103580.13
2023-02-12T13:07:46.957Z,103574.91
2023-02-12T13:10:13.459Z,103574.09
2023-02-12T13:13:01.268Z,103574.91
2023-02-12T13:15:45.956Z,103569.72
2023-02-12T13:18:31.489Z,103561.94
2023-02-12T13:21:42.365Z,103563.66
2023-02-12T13:24:30.222Z,103559.34
2023-02-12T13:26:58.518Z,103556.75
2023-02-12T13:29:51.707Z,103550.69
2023-02-12T13:32:38.560Z,103548.97
2023-02-12T13:35:07.482Z,103543.78
2023-02-12T13:37:40.138Z,103550.69
2023-02-12T13:40:09.063Z,103545.47
2023-02-12T13:42:46.693Z,103543.75
2023-02-12T13:45:22.158Z,103547.25
2023-02-12T13:47:54.647Z,103551.56
2023-02-12T13:50:48.348Z,103548.97
2023-02-12T13:53:31.206Z,103547.25
2023-02-12T13:56:07.233Z,103545.50
2023-02-12T13:58:39.493Z,103544.59
2023-02-12T14:01:33.401Z,103546.38
2023-02-12T14:04:22.190Z,103543.78
2023-02-12T14:07:04.358Z,103546.38
2023-02-12T14:09:43.637Z,103540.31
2023-02-12T14:12:25.534Z,103547.19
2023-02-12T14:14:56.561Z,103540.28
2023-02-12T14:17:29.175Z,103546.34
2023-02-12T14:19:56.948Z,103553.25
2023-02-12T14:22:26.525Z,103552.38
2023-02-12T14:24:55.941Z,103542.00
2023-02-12T14:27:50.206Z,103547.19
2023-02-12T14:30:16.706Z,103546.28
2023-02-12T14:32:46.358Z,103550.66
2023-02-12T14:35:28.066Z,103542.88
2023-02-12T14:38:15.722Z,103546.31
2023-02-12T14:40:47.728Z,103544.56
2023-02-12T14:43:28.544Z,103541.91
2023-02-12T14:45:57.710Z,103543.69
2023-02-12T14:48:44.874Z,103538.50
2023-02-12T14:51:20.360Z,103544.56
2023-02-12T14:53:48.615Z,103539.31
2023-02-12T14:56:20.988Z,103546.25
2023-02-12T14:58:49.532Z,103539.38
2023-02-12T15:01:16.966Z,103545.41
2023-02-12T15:03:51.139Z,103544.50
2023-02-12T15:06:37.775Z,103544.47
2023-02-12T15:09:16.510Z,103539.31
2023-02-12T15:11:52.613Z,103533.25
2023-02-12T15:14:24.745Z,103534.13
2023-02-12T15:17:06.191Z,103527.22
2023-02-12T15:20:02.737Z,103525.44
2023-02-12T15:22:38.600Z,103523.66
2023-02-12T15:25:27.749Z,103523.66
2023-02-12T15:28:33.568Z,103520.22
2023-02-12T15:31:05.199Z,103515.03
2023-02-12T15:33:35.432Z,103515.03
2023-02-12T15:36:03.670Z,103517.63
2023-02-12T15:38:39.935Z,103514.97
2023-02-12T15:41:06.830Z,103514.09
2023-02-12T15:43:36.049Z,103514.97
2023-02-12T15:46:06.197Z,103514.09
2023-02-12T15:48:36.149Z,103502.91
2023-02-12T15:51:22.824Z,103504.63
2023-02-12T15:53:49.867Z,103501.13
2023-02-12T15:56:19.620Z,103498.53
2023-02-12T15:58:54.699Z,103502.00
2023-02-12T16:01:26.879Z,103499.41
2023-02-12T16:03:59.185Z,103506.31
2023-02-12T16:06:27.909Z,103503.75
2023-02-12T16:09:17.397Z,103506.31
2023-02-12T16:11:46.372Z,103496.81
2023-02-12T16:14:25.706Z,103504.59
2023-02-12T16:16:55.342Z,103498.53
2023-02-12T16:19:27.822Z,103502.00
2023-02-12T16:21:57.084Z,103499.41
2023-02-12T16:24:31.355Z,103498.50
2023-02-12T16:27:04.313Z,103499.38
2023-02-12T16:29:33.679Z,103502.88
2023-02-12T16:32:02.631Z,103496.78
2023-02-12T16:34:38.933Z,103498.50
2023-02-12T16:37:31.458Z,103498.50
2023-02-12T16:39:58.166Z,103503.66
2023-02-12T16:42:29.509Z,103499.34
2023-02-12T16:44:56.615Z,103502.81
2023-02-12T16:47:25.603Z,103503.66
2023-02-12T16:50:02.306Z,103500.22
2023-02-12T16:52:40.935Z,103499.38
2023-02-12T16:55:16.172Z,103505.41
2023-02-12T16:57:43.203Z,103509.72
2023-02-12T17:00:15.645Z,103508.88
2023-02-12T17:02:42.839Z,103513.16
2023-02-12T17:05:10.384Z,103518.31
2023-02-12T17:07:36.986Z,103520.06
2023-02-12T17:10:06.253Z,103527.81
2023-02-12T17:12:32.887Z,103522.66
2023-02-12T17:15:04.821Z,103518.31
2023-02-12T17:17:31.372Z,103520.91
2023-02-12T17:19:57.890Z,103522.66
2023-02-12T17:22:27.269Z,103520.06
2023-02-12T17:24:54.890Z,103526.09
2023-02-12T17:27:21.812Z,103520.91
2023-02-12T17:29:48.538Z,103533.91
2023-02-12T17:32:16.680Z,103536.53
2023-02-12T17:34:48.824Z,103525.28
2023-02-12T17:37:17.105Z,103521.81
2023-02-12T17:39:43.748Z,103523.56
2023-02-12T17:42:10.293Z,103531.38
2023-02-12T17:44:36.896Z,103533.06
2023-02-12T17:47:03.556Z,103527.00
2023-02-12T17:49:30.787Z,103524.41
2023-02-12T17:51:57.293Z,103524.41
2023-02-12T17:54:24.003Z,103527.00
2023-02-12T17:56:50.558Z,103529.59
2023-02-12T17:59:17.056Z,103524.41
2023-02-12T18:01:44.144Z,103516.63
2023-02-12T18:04:10.737Z,103514.91
2023-02-12T18:06:37.603Z,103520.91
2023-02-12T18:09:04.306Z,103523.56
2023-02-12T18:11:32.233Z,103526.09
2023-02-12T18:13:59.998Z,103525.22
2023-02-12T18:16:30.799Z,103522.63
2023-02-12T18:18:59.901Z,103523.50
2023-02-12T18:21:26.824Z,103522.63
2023-02-12T18:23:54.365Z,103525.22
2023-02-12T18:26:21.302Z,103525.22
2023-02-12T18:28:48.078Z,103532.97
2023-02-12T18:31:14.830Z,103528.69
2023-02-12T18:33:41.947Z,103527.81
2023-02-12T18:36:12.080Z,103527.81
2023-02-12T18:38:40.595Z,103526.09
2023-02-12T18:41:20.121Z,103531.28
2023-02-12T18:43:47.256Z,103531.22
2023-02-12T18:46:20.528Z,103525.19
2023-02-12T18:48:47.470Z,103522.59
2023-02-12T18:51:21.083Z,103526.91
2023-02-12T18:53:48.458Z,103528.63
2023-02-12T18:56:15.034Z,103526.03
2023-02-12T18:58:41.557Z,103526.03
2023-02-12T19:01:18.597Z,103524.31
2023-02-12T19:03:46.278Z,103521.72
2023-02-12T19:06:13.242Z,103524.31
2023-02-12T19:08:40.247Z,103511.34
2023-02-12T19:11:08.506Z,103508.75
2023-02-12T19:13:35.320Z,103511.34
2023-02-12T19:16:18.712Z,103517.34
2023-02-12T19:18:48.667Z,103519.06
2023-02-12T19:21:18.993Z,103515.63
2023-02-12T19:23:45.612Z,103518.22
2023-02-12T19:26:17.475Z,103510.44
2023-02-12T19:28:44.055Z,103512.16
2023-02-12T19:31:15.311Z,103514.75
2023-02-12T19:33:43.105Z,103513.84
2023-02-12T19:36:11.902Z,103511.25
2023-02-12T19:38:38.911Z,103508.66
2023-02-12T19:41:14.774Z,103512.97
2023-02-12T19:43:41.348Z,103511.25
2023-02-12T19:46:15.194Z,103509.56
2023-02-12T19:48:42.861Z,103506.09
2023-02-12T19:51:13.842Z,103502.59
2023-02-12T19:53:40.569Z,103495.69
2023-02-12T19:56:07.498Z,103503.50
2023-02-12T19:58:34.391Z,103501.75
2023-02-12T20:01:01.077Z,103498.28
2023-02-12T20:03:28.756Z,103498.28
2023-02-12T20:06:09.736Z,103493.97
2023-02-12T20:08:37.684Z,103499.13
2023-02-12T20:11:09.348Z,103494.81
2023-02-12T20:13:36.566Z,103495.69
2023-02-12T20:16:07.807Z,103500.84
2023-02-12T20:18:34.770Z,103497.41
2023-02-12T20:21:02.303Z,103502.59
2023-02-12T20:23:28.824Z,103497.41
2023-02-12T20:25:55.359Z,103500.81
2023-02-12T20:28:21.884Z,103499.94
2023-02-12T20:30:48.791Z,103500.81
2023-02-12T20:33:15.557Z,103500.81
2023-02-12T20:35:42.074Z,103504.25
2023-02-12T20:38:08.707Z,103511.09
2023-02-12T20:40:35.277Z,103509.38
2023-02-12T20:43:03.146Z,103508.56
2023-02-12T20:45:29.736Z,103505.94
2023-02-12T20:47:56.410Z,103510.25
2023-02-12T20:50:22.907Z,103504.22
2023-02-12T20:52:49.664Z,103505.06
2023-02-12T20:55:16.468Z,103506.84
2023-02-12T20:57:43.114Z,103505.06
2023-02-12T21:00:10.171Z,103509.38
2023-02-12T21:02:36.690Z,103493.84
2023-02-12T21:05:03.378Z,103500.75
2023-02-12T21:07:29.924Z,103503.41
2023-02-12T21:09:56.450Z,103506.00
2023-02-12T21:12:23.004Z,103502.53
2023-02-12T21:14:49.567Z,103499.94
2023-02-12T21:17:20.208Z,103503.41
2023-02-12T21:19:46.775Z,103499.88
2023-02-12T21:22:13.286Z,103504.22
2023-02-12T21:24:39.795Z,103497.34
2023-02-12T21:27:06.796Z,103499.03
2023-02-12T21:29:33.478Z,103501.66
2023-02-12T21:32:03.063Z,103501.63
2023-02-12T21:34:29.787Z,103511.16
2023-02-12T21:36:56.898Z,103505.97
2023-02-12T21:39:27.333Z,103499.06
2023-02-12T21:41:58.087Z,103501.66
2023-02-12T21:44:26.019Z,103502.53
2023-02-12T21:46:53.217Z,103508.56
2023-02-12T21:49:25.088Z,103509.44
2023-02-12T21:51:55.114Z,103507.66
2023-02-12T21:54:22.135Z,103505.94
2023-02-12T21:56:50.188Z,103509.38
2023-02-12T21:59:17.890Z,103504.22
2023-02-12T22:01:52.967Z,103505.13
2023-02-12T22:04:20.184Z,103507.69
2023-02-12T22:06:48.747Z,103503.41
2023-02-12T22:09:18.812Z,103502.53
2023-02-12T22:11:45.484Z,103501.72
2023-02-12T22:14:16.161Z,103497.34
2023-02-12T22:16:43.439Z,103494.75
2023-02-12T22:19:10.215Z,103501.66
2023-02-12T22:21:40.201Z,103493.03
2023-02-12T22:24:09.588Z,103488.69
2023-02-12T22:26:36.952Z,103492.16
2023-02-12T22:29:09.154Z,103487.00
2023-02-12T22:31:38.064Z,103483.56
2023-02-12T22:34:17.418Z,103492.22
2023-02-12T22:36:44.956Z,103494.81
2023-02-12T22:39:13.180Z,103496.50
2023-02-12T22:41:41.989Z,103488.72
2023-02-12T22:44:10.409Z,103493.03
2023-02-12T22:46:36.872Z,103494.75
2023-02-12T22:49:03.528Z,103497.34
2023-02-12T22:51:32.219Z,103503.41
2023-02-12T22:53:59.330Z,103496.50
2023-02-12T22:56:26.561Z,103500.81
2023-02-12T22:58:58.236Z,103499.09
2023-02-12T23:01:28.328Z,103511.19
2023-02-12T23:03:55.515Z,103506.00
2023-02-12T23:06:25.034Z,103501.72
2023-02-12T23:08:53.374Z,103502.53
2023-02-12T23:11:20.633Z,103506.00
2023-02-12T23:13:47.520Z,103512.94
2023-02-12T23:16:16.875Z,103512.03
2023-02-12T23:18:43.761Z,103512.91
2023-02-12T23:21:10.452Z,103507.72
2023-02-12T23:23:37.115Z,103505.13
2023-02-12T23:26:03.742Z,103506.84
2023-02-12T23:28:30.981Z,103503.38
2023-02-12T23:30:58.349Z,103502.47
2023-02-12T23:33:25.089Z,103505.03
2023-02-12T23:35:51.638Z,103492.09
2023-02-12T23:38:18.674Z,103497.31
2023-02-12T23:40:47.030Z,103489.56
2023-02-12T23:43:13.731Z,103488.69
2023-02-12T23:45:40.279Z,103485.25
2023-02-12T23:48:06.825Z,103483.53
2023-02-12T23:50:33.453Z,103480.94
2023-02-12T23:53:00.095Z,103486.97
2023-02-12T23:55:26.919Z,103477.47
2023-02-12T23:57:53.633Z,103478.28
